createdAt,value
2017-08-02T00:01:12.517Z,100365.74
2017-08-02T00:03:40.125Z,100364.43
2017-08-02T00:06:07.742Z,100366.30
2017-08-02T00:08:35.424Z,100365.53
2017-08-02T00:11:03.033Z,100362.75
2017-08-02T00:13:30.657Z,100367.47
2017-08-02T00:15:58.340Z,100364.41
2017-08-02T00:18:25.959Z,100364.89
2017-08-02T00:20:53.571Z,100359.52
2017-08-02T00:23:21.244Z,100357.89
2017-08-02T00:25:48.868Z,100350.38
2017-08-02T00:28:16.493Z,100348.14
2017-08-02T00:30:44.181Z,100347.52
2017-08-02T00:33:11.808Z,100338.95
2017-08-02T00:35:39.417Z,100347.92
2017-08-02T00:38:07.095Z,100344.28
2017-08-02T00:40:34.719Z,100347.65
2017-08-02T00:43:02.405Z,100346.83
2017-08-02T00:45:30.081Z,100345.15
2017-08-02T00:47:57.703Z,100338.31
2017-08-02T00:50:25.483Z,100340.77
2017-08-02T00:52:53.164Z,100341.07
2017-08-02T00:55:20.783Z,100348.84
2017-08-02T00:57:48.405Z,100340.55
2017-08-02T01:00:16.074Z,100346.72
2017-08-02T01:02:43.921Z,100344.02
2017-08-02T01:05:11.868Z,100343.59
2017-08-02T01:07:39.945Z,100346.35
2017-08-02T01:10:07.602Z,100344.37
2017-08-02T01:12:35.671Z,100342.08
2017-08-02T01:15:03.340Z,100341.02
2017-08-02T01:17:30.999Z,100339.59
2017-08-02T01:19:58.628Z,100345.80
2017-08-02T01:22:26.313Z,100344.09
2017-08-02T01:24:54.174Z,100348.13
2017-08-02T01:27:22.053Z,100345.55
2017-08-02T01:29:50.084Z,100337.34
2017-08-02T01:32:17.899Z,100333.35
2017-08-02T01:34:45.858Z,100325.40
2017-08-02T01:37:13.834Z,100331.67
2017-08-02T01:39:41.797Z,100331.50
2017-08-02T01:42:09.769Z,100332.42
2017-08-02T01:44:37.472Z,100330.68
2017-08-02T01:47:05.094Z,100326.38
2017-08-02T01:49:32.720Z,100327.33
2017-08-02T01:52:00.401Z,100328.83
2017-08-02T01:54:28.018Z,100337.52
2017-08-02T01:56:56.545Z,100335.37
2017-08-02T01:59:24.208Z,100333.77
2017-08-02T02:01:52.028Z,100335.33
2017-08-02T02:04:19.749Z,100333.44
2017-08-02T02:06:47.688Z,100339.94
2017-08-02T02:09:15.503Z,100338.20
2017-08-02T02:11:43.453Z,100337.02
2017-08-02T02:14:11.525Z,100334.56
2017-08-02T02:16:39.256Z,100334.02
2017-08-02T02:19:07.222Z,100339.50
2017-08-02T02:21:35.330Z,100349.72
2017-08-02T02:24:03.180Z,100349.53
2017-08-02T02:26:30.858Z,100355.37
2017-08-02T02:28:58.839Z,100354.89
2017-08-02T02:31:26.799Z,100359.19
2017-08-02T02:33:54.526Z,100354.23
2017-08-02T02:36:22.515Z,100358.84
2017-08-02T02:38:50.382Z,100351.41
2017-08-02T02:41:18.126Z,100353.30
2017-08-02T02:43:46.133Z,100349.55
2017-08-02T02:46:14.135Z,100349.72
2017-08-02T02:48:42.071Z,100351.07
2017-08-02T02:51:10.111Z,100346.00
2017-08-02T02:53:38.058Z,100345.15
2017-08-02T02:56:06.051Z,100343.92
2017-08-02T02:58:34.045Z,100351.10
2017-08-02T03:01:01.818Z,100348.48
2017-08-02T03:03:29.752Z,100350.53
2017-08-02T03:05:57.751Z,100353.12
2017-08-02T03:08:25.805Z,100358.19
2017-08-02T03:13:26.314Z,100363.14
2017-08-02T03:15:54.211Z,100360.55
2017-08-02T03:18:22.180Z,100363.64
2017-08-02T03:20:50.022Z,100362.41
2017-08-02T03:23:17.943Z,100356.72
2017-08-02T03:25:45.779Z,100362.73
2017-08-02T03:28:13.884Z,100365.93
2017-08-02T03:30:41.736Z,100366.77
2017-08-02T03:33:09.422Z,100366.98
2017-08-02T03:35:37.447Z,100370.89
2017-08-02T03:38:05.139Z,100364.55
2017-08-02T03:40:32.933Z,100364.87
2017-08-02T03:43:00.722Z,100370.93
2017-08-02T03:45:28.747Z,100364.17
2017-08-02T03:47:56.642Z,100366.02
2017-08-02T03:50:24.670Z,100360.26
2017-08-02T03:52:52.537Z,100367.03
2017-08-02T03:55:20.382Z,100366.26
2017-08-02T03:57:48.199Z,100363.79
2017-08-02T04:00:16.153Z,100359.00
2017-08-02T04:02:43.983Z,100362.37
2017-08-02T04:05:11.724Z,100360.47
2017-08-02T04:07:39.467Z,100365.11
2017-08-02T04:10:07.259Z,100367.88
2017-08-02T04:12:35.385Z,100367.13
2017-08-02T04:15:03.063Z,100371.42
2017-08-02T04:17:30.886Z,100382.36
2017-08-02T04:19:58.604Z,100370.30
2017-08-02T04:22:26.612Z,100376.36
2017-08-02T04:24:54.415Z,100376.39
2017-08-02T04:27:22.383Z,100379.91
2017-08-02T04:29:50.248Z,100379.27
2017-08-02T04:32:17.961Z,100382.20
2017-08-02T04:34:45.930Z,100383.70
2017-08-02T04:37:13.696Z,100386.93
2017-08-02T04:39:41.688Z,100377.58
2017-08-02T04:42:09.429Z,100389.85
2017-08-02T04:44:37.450Z,100383.40
2017-08-02T04:47:05.164Z,100388.31
2017-08-02T04:49:33.083Z,100387.17
2017-08-02T04:52:00.898Z,100393.01
2017-08-02T04:54:28.919Z,100399.26
2017-08-02T04:56:56.783Z,100400.63
2017-08-02T04:59:24.503Z,100402.19
2017-08-02T05:01:52.366Z,100401.52
2017-08-02T05:04:20.403Z,100400.93
2017-08-02T05:06:48.252Z,100411.06
2017-08-02T05:09:16.092Z,100398.88
2017-08-02T05:11:43.959Z,100398.81
2017-08-02T05:14:11.825Z,100402.72
2017-08-02T05:16:39.514Z,100394.27
2017-08-02T05:19:07.535Z,100396.77
2017-08-02T05:21:35.630Z,100391.69
2017-08-02T05:24:03.333Z,100393.16
2017-08-02T05:26:31.240Z,100397.06
2017-08-02T05:28:59.259Z,100398.02
2017-08-02T05:31:27.102Z,100388.97
2017-08-02T05:33:55.199Z,100385.12
2017-08-02T05:36:23.054Z,100384.62
2017-08-02T05:38:50.726Z,100382.25
2017-08-02T05:41:18.768Z,100387.49
2017-08-02T05:43:46.659Z,100392.52
2017-08-02T05:46:14.321Z,100385.55
2017-08-02T05:48:42.269Z,100390.91
2017-08-02T05:51:10.261Z,100391.78
2017-08-02T05:53:37.922Z,100378.81
2017-08-02T05:56:06.000Z,100376.94
2017-08-02T05:58:34.008Z,100370.98
2017-08-02T06:01:01.855Z,100370.51
2017-08-02T06:03:29.772Z,100368.00
2017-08-02T06:05:57.540Z,100375.32
2017-08-02T06:08:25.340Z,100378.70
2017-08-02T06:10:53.330Z,100380.97
2017-08-02T06:13:21.194Z,100379.91
2017-08-02T06:15:48.986Z,100379.96
2017-08-02T06:18:16.803Z,100375.45
2017-08-02T06:20:44.874Z,100372.92
2017-08-02T06:25:46.751Z,100375.06
2017-08-02T06:28:14.621Z,100371.50
2017-08-02T06:30:42.486Z,100364.73
2017-08-02T06:33:10.347Z,100366.25
2017-08-02T06:35:38.073Z,100365.89
2017-08-02T06:38:06.039Z,100363.15
2017-08-02T06:40:33.857Z,100361.22
2017-08-02T06:43:01.799Z,100361.00
2017-08-02T06:45:29.688Z,100363.22
2017-08-02T06:47:57.761Z,100361.59
2017-08-02T06:50:25.801Z,100359.39
2017-08-02T06:52:53.891Z,100356.36
2017-08-02T06:55:21.737Z,100364.39
2017-08-02T06:57:49.639Z,100362.45
2017-08-02T07:00:17.349Z,100359.02
2017-08-02T07:02:45.214Z,100361.81
2017-08-02T07:05:13.079Z,100364.05
2017-08-02T07:07:40.923Z,100367.62
2017-08-02T07:10:08.795Z,100374.28
2017-08-02T07:12:36.838Z,100370.51
2017-08-02T07:15:04.676Z,100362.97
2017-08-02T07:17:32.373Z,100357.95
2017-08-02T07:20:00.020Z,100366.66
2017-08-02T07:22:27.876Z,100361.62
2017-08-02T07:24:55.620Z,100361.91
2017-08-02T07:27:23.587Z,100361.73
2017-08-02T07:29:51.496Z,100357.83
2017-08-02T07:32:19.365Z,100360.18
2017-08-02T07:34:47.089Z,100363.02
2017-08-02T07:37:14.650Z,100365.39
2017-08-02T07:39:42.299Z,100367.21
2017-08-02T07:42:10.006Z,100358.09
2017-08-02T07:44:37.575Z,100363.63
2017-08-02T07:47:05.466Z,100360.91
2017-08-02T07:49:33.409Z,100358.34
2017-08-02T07:52:01.261Z,100362.52
2017-08-02T07:54:29.140Z,100364.86
2017-08-02T07:56:56.994Z,100359.69
2017-08-02T07:59:24.737Z,100362.56
2017-08-02T08:01:52.731Z,100361.95
2017-08-02T08:04:20.474Z,100349.17
2017-08-02T08:06:48.269Z,100351.33
2017-08-02T08:09:16.343Z,100347.39
2017-08-02T08:11:44.175Z,100349.70
2017-08-02T08:14:12.510Z,100354.28
2017-08-02T08:16:42.183Z,100350.89
2017-08-02T08:19:11.970Z,100346.31
2017-08-02T08:21:41.957Z,100343.15
2017-08-02T08:24:11.256Z,100349.53
2017-08-02T08:26:41.030Z,100344.16
2017-08-02T08:29:11.007Z,100340.14
2017-08-02T08:31:40.742Z,100344.35
2017-08-02T08:34:09.923Z,100339.31
2017-08-02T08:36:37.825Z,100335.80
2017-08-02T08:39:05.665Z,100330.32
2017-08-02T08:41:33.534Z,100329.80
2017-08-02T08:44:01.330Z,100328.52
2017-08-02T08:46:29.268Z,100327.30
2017-08-02T08:48:57.009Z,100331.16
2017-08-02T08:51:25.002Z,100329.66
2017-08-02T08:53:52.745Z,100327.27
2017-08-02T08:56:20.561Z,100323.05
2017-08-02T08:58:48.579Z,100320.08
2017-08-02T09:01:16.498Z,100314.60
2017-08-02T09:03:44.335Z,100316.80
2017-08-02T09:06:12.100Z,100313.88
2017-08-02T09:08:40.072Z,100312.17
2017-08-02T09:11:07.818Z,100307.25
2017-08-02T09:13:35.685Z,100305.88
2017-08-02T09:16:03.701Z,100297.83
2017-08-02T09:18:31.565Z,100300.41
2017-08-02T09:20:59.336Z,100303.79
2017-08-02T09:23:27.300Z,100297.20
2017-08-02T09:25:55.144Z,100297.35
2017-08-02T09:28:23.012Z,100292.94
2017-08-02T09:30:50.695Z,100290.30
2017-08-02T09:33:18.547Z,100288.72
2017-08-02T09:35:46.267Z,100285.00
2017-08-02T09:38:14.082Z,100284.68
2017-08-02T09:40:41.960Z,100287.00
2017-08-02T09:43:09.675Z,100277.95
2017-08-02T09:45:37.325Z,100285.66
2017-08-02T09:48:05.278Z,100275.22
2017-08-02T09:50:33.223Z,100273.73
2017-08-02T09:53:01.292Z,100265.11
2017-08-02T09:55:30.390Z,100262.70
2017-08-02T09:57:58.319Z,100260.08
2017-08-02T10:00:26.327Z,100265.05
2017-08-02T10:02:54.058Z,100260.90
2017-08-02T10:05:22.047Z,100260.57
2017-08-02T10:07:50.110Z,100250.48
2017-08-02T10:10:17.999Z,100251.05
2017-08-02T10:12:45.591Z,100246.98
2017-08-02T10:15:13.530Z,100240.03
2017-08-02T10:17:41.261Z,100238.26
2017-08-02T10:20:09.204Z,100232.02
2017-08-02T10:22:36.972Z,100232.42
2017-08-02T10:25:04.589Z,100228.62
2017-08-02T10:27:32.357Z,100223.19
2017-08-02T10:29:59.980Z,100217.11
2017-08-02T10:32:27.538Z,100219.97
2017-08-02T10:34:55.100Z,100212.99
2017-08-02T10:37:22.763Z,100215.62
2017-08-02T10:39:50.305Z,100206.75
2017-08-02T10:42:18.183Z,100205.36
2017-08-02T10:44:45.950Z,100206.88
2017-08-02T10:47:13.751Z,100214.77
2017-08-02T10:49:41.462Z,100200.13
2017-08-02T10:52:09.426Z,100200.70
2017-08-02T10:54:37.254Z,100195.00
2017-08-02T10:57:05.065Z,100199.75
2017-08-02T10:59:33.034Z,100188.27
2017-08-02T11:02:00.951Z,100183.83
2017-08-02T11:04:28.612Z,100184.09
2017-08-02T11:06:56.469Z,100181.30
2017-08-02T11:09:24.258Z,100173.86
2017-08-02T11:11:52.007Z,100174.20
2017-08-02T11:14:20.060Z,100176.20
2017-08-02T11:16:47.806Z,100174.41
2017-08-02T11:19:15.772Z,100165.08
2017-08-02T11:21:43.475Z,100174.12
2017-08-02T11:24:11.320Z,100169.02
2017-08-02T11:26:39.198Z,100172.31
2017-08-02T11:29:07.265Z,100168.41
2017-08-02T11:31:35.313Z,100165.41
2017-08-02T11:34:03.021Z,100167.98
2017-08-02T11:36:30.989Z,100164.48
2017-08-02T11:38:59.033Z,100161.94
2017-08-02T11:41:26.779Z,100159.72
2017-08-02T11:43:54.743Z,100152.36
2017-08-02T11:46:22.452Z,100143.78
2017-08-02T11:48:50.303Z,100150.00
2017-08-02T11:51:17.987Z,100151.00
2017-08-02T11:53:45.663Z,100150.73
2017-08-02T11:56:13.508Z,100158.65
2017-08-02T11:58:41.184Z,100153.20
2017-08-02T12:01:09.244Z,100156.06
2017-08-02T12:03:37.310Z,100134.91
2017-08-02T12:06:05.057Z,100136.66
2017-08-02T12:08:32.905Z,100136.01
2017-08-02T12:11:00.889Z,100133.34
2017-08-02T12:13:28.656Z,100121.19
2017-08-02T12:15:56.720Z,100121.65
2017-08-02T12:18:24.667Z,100126.10
2017-08-02T12:20:52.588Z,100119.86
2017-08-02T12:23:20.254Z,100117.45
2017-08-02T12:25:48.295Z,100109.25
2017-08-02T12:28:15.986Z,100116.03
2017-08-02T12:30:43.686Z,100106.56
2017-08-02T12:33:11.693Z,100107.57
2017-08-02T12:35:39.381Z,100109.94
2017-08-02T12:38:07.104Z,100101.42
2017-08-02T12:40:35.113Z,100097.79
2017-08-02T12:43:02.767Z,100103.93
2017-08-02T12:45:30.442Z,100102.84
2017-08-02T12:47:58.496Z,100108.12
2017-08-02T12:50:26.268Z,100108.95
2017-08-02T12:52:54.039Z,100101.86
2017-08-02T12:55:21.899Z,100099.13
2017-08-02T12:57:49.565Z,100092.14
2017-08-02T13:00:17.286Z,100088.14
2017-08-02T13:02:45.205Z,100082.81
2017-08-02T13:05:13.089Z,100093.17
2017-08-02T13:07:41.035Z,100097.63
2017-08-02T13:10:08.903Z,100090.19
2017-08-02T13:12:36.746Z,100090.53
2017-08-02T13:15:04.540Z,100083.25
2017-08-02T13:17:32.407Z,100090.36
2017-08-02T13:20:00.061Z,100088.98
2017-08-02T13:22:27.968Z,100079.75
2017-08-02T13:24:55.691Z,100084.78
2017-08-02T13:27:23.354Z,100085.91
2017-08-02T13:29:51.031Z,100072.85
2017-08-02T13:32:18.892Z,100078.48
2017-08-02T13:34:46.551Z,100073.80
2017-08-02T13:37:14.215Z,100069.08
2017-08-02T13:39:42.281Z,100064.16
2017-08-02T13:42:10.351Z,100064.45
2017-08-02T13:44:38.218Z,100065.92
2017-08-02T13:47:06.264Z,100064.73
2017-08-02T13:49:34.010Z,100061.50
2017-08-02T13:52:02.022Z,100062.89
2017-08-02T13:54:30.044Z,100054.47
2017-08-02T13:56:57.862Z,100055.73
2017-08-02T13:59:25.673Z,100050.34
2017-08-02T14:01:53.903Z,100048.68
2017-08-02T14:04:21.572Z,100044.62
2017-08-02T14:06:49.482Z,100062.55
2017-08-02T14:09:17.132Z,100059.80
2017-08-02T14:11:44.959Z,100048.93
2017-08-02T14:14:13.037Z,100046.19
2017-08-02T14:16:40.696Z,100050.14
2017-08-02T14:19:08.541Z,100049.25
2017-08-02T14:21:36.607Z,100045.73
2017-08-02T14:24:04.550Z,100051.56
2017-08-02T14:26:32.599Z,100051.91
2017-08-02T14:29:00.607Z,100048.20
2017-08-02T14:31:28.295Z,100042.18
2017-08-02T14:33:56.142Z,100044.16
2017-08-02T14:36:24.451Z,100036.59
2017-08-02T14:38:52.300Z,100041.58
2017-08-02T14:41:19.997Z,100037.20
2017-08-02T14:43:47.916Z,100030.98
2017-08-02T14:46:15.582Z,100037.94
2017-08-02T14:48:43.301Z,100041.03
2017-08-02T14:51:11.454Z,100039.89
2017-08-02T14:53:39.313Z,100038.46
2017-08-02T14:56:07.326Z,100039.13
2017-08-02T14:58:35.043Z,100037.13
2017-08-02T15:01:02.695Z,100035.25
2017-08-02T15:03:30.366Z,100038.11
2017-08-02T15:05:58.370Z,100039.00
2017-08-02T15:08:26.099Z,100037.34
2017-08-02T15:10:53.764Z,100032.73
2017-08-02T15:13:21.624Z,100029.39
2017-08-02T15:15:49.290Z,100032.05
2017-08-02T15:18:17.006Z,100029.47
2017-08-02T15:20:45.033Z,100019.04
2017-08-02T15:23:12.740Z,100021.02
2017-08-02T15:25:40.704Z,100020.82
2017-08-02T15:28:08.415Z,100025.52
2017-08-02T15:30:36.125Z,100023.22
2017-08-02T15:33:04.157Z,100018.02
2017-08-02T15:35:32.023Z,100022.36
2017-08-02T15:37:59.867Z,100019.77
2017-08-02T15:40:27.460Z,100017.38
2017-08-02T15:42:55.419Z,100018.19
2017-08-02T15:45:23.271Z,100016.05
2017-08-02T15:47:51.138Z,100018.53
2017-08-02T15:50:18.881Z,100025.14
2017-08-02T15:52:46.751Z,100019.77
2017-08-02T15:55:14.538Z,100023.23
2017-08-02T15:57:42.408Z,100022.27
2017-08-02T16:00:10.074Z,100014.98
2017-08-02T16:02:37.918Z,100025.88
2017-08-02T16:05:05.598Z,100020.84
2017-08-02T16:07:33.268Z,100029.20
2017-08-02T16:10:00.930Z,100028.51
2017-08-02T16:12:28.864Z,100025.65
2017-08-02T16:14:56.728Z,100033.87
2017-08-02T16:17:24.730Z,100029.86
2017-08-02T16:19:52.396Z,100035.27
2017-08-02T16:22:20.108Z,100032.64
2017-08-02T16:24:47.919Z,100033.16
2017-08-02T16:27:15.868Z,100036.63
2017-08-02T16:29:43.680Z,100035.91
2017-08-02T16:32:11.629Z,100029.55
2017-08-02T16:34:39.417Z,100034.55
2017-08-02T16:37:07.262Z,100038.13
2017-08-02T16:39:35.102Z,100037.39
2017-08-02T16:42:02.783Z,100036.80
2017-08-02T16:44:30.513Z,100033.27
2017-08-02T16:46:58.093Z,100040.75
2017-08-02T16:49:25.950Z,100036.45
2017-08-02T16:51:53.641Z,100042.86
2017-08-02T16:54:21.298Z,100040.72
2017-08-02T16:56:49.369Z,100039.80
2017-08-02T16:59:17.215Z,100033.75
2017-08-02T17:01:45.083Z,100033.63
2017-08-02T17:04:12.973Z,100039.69
2017-08-02T17:06:40.692Z,100037.43
2017-08-02T17:09:08.494Z,100038.55
2017-08-02T17:11:36.230Z,100031.80
2017-08-02T17:14:04.233Z,100039.59
2017-08-02T17:16:31.968Z,100036.19
2017-08-02T17:18:59.827Z,100034.74
2017-08-02T17:21:27.428Z,100036.19
2017-08-02T17:23:55.304Z,100040.34
2017-08-02T17:26:23.209Z,100045.53
2017-08-02T17:28:51.235Z,100043.95
2017-08-02T17:31:18.945Z,100046.73
2017-08-02T17:33:46.761Z,100053.27
2017-08-02T17:36:14.427Z,100044.86
2017-08-02T17:38:42.141Z,100051.63
2017-08-02T17:41:09.956Z,100053.68
2017-08-02T17:43:37.799Z,100054.58
2017-08-02T17:46:05.670Z,100056.47
2017-08-02T17:48:33.532Z,100065.38
2017-08-02T17:51:01.213Z,100064.34
2017-08-02T17:53:28.949Z,100070.27
2017-08-02T17:55:56.744Z,100072.31
2017-08-02T17:58:24.405Z,100070.45
2017-08-02T18:00:52.146Z,100073.02
2017-08-02T18:03:19.927Z,100076.81
2017-08-02T18:05:47.803Z,100078.72
2017-08-02T18:08:15.529Z,100081.91
2017-08-02T18:10:43.396Z,100084.50
2017-08-02T18:13:11.402Z,100083.88
2017-08-02T18:15:39.067Z,100084.81
2017-08-02T18:18:06.915Z,100087.61
2017-08-02T18:20:34.596Z,100091.30
2017-08-02T18:23:02.304Z,100090.89
2017-08-02T18:25:30.130Z,100090.36
2017-08-02T18:27:57.725Z,100089.19
2017-08-02T18:30:25.655Z,100088.73
2017-08-02T18:32:53.421Z,100093.81
2017-08-02T18:35:21.042Z,100095.13
2017-08-02T18:37:48.708Z,100096.28
2017-08-02T18:40:16.376Z,100102.04
2017-08-02T18:42:44.019Z,100097.52
2017-08-02T18:45:11.638Z,100102.64
2017-08-02T18:47:39.317Z,100099.56
2017-08-02T18:50:06.925Z,100098.54
2017-08-02T18:52:34.540Z,100100.81
2017-08-02T18:55:02.224Z,100103.04
2017-08-02T18:57:29.819Z,100101.52
2017-08-02T18:59:57.421Z,100109.30
2017-08-02T19:02:25.244Z,100111.09
2017-08-02T19:04:53.119Z,100112.55
2017-08-02T19:07:20.790Z,100111.49
2017-08-02T19:09:48.434Z,100113.95
2017-08-02T19:12:16.315Z,100107.92
2017-08-02T19:14:44.024Z,100108.83
2017-08-02T19:17:11.844Z,100111.89
2017-08-02T19:19:39.444Z,100109.30
2017-08-02T19:22:07.176Z,100109.29
2017-08-02T19:24:35.204Z,100108.48
2017-08-02T19:27:02.904Z,100106.36
2017-08-02T19:29:31.368Z,100108.91
2017-08-02T19:32:02.233Z,100107.28
2017-08-02T19:34:32.935Z,100109.25
2017-08-02T19:37:02.759Z,100107.78
2017-08-02T19:39:30.638Z,100110.23
2017-08-02T19:41:58.300Z,100108.45
2017-08-02T19:44:25.963Z,100112.07
2017-08-02T19:46:53.684Z,100113.59
2017-08-02T19:49:21.652Z,100115.23
2017-08-02T19:51:49.312Z,100119.29
2017-08-02T19:54:16.913Z,100118.73
2017-08-02T19:56:44.671Z,100119.00
2017-08-02T19:59:12.329Z,100120.27
2017-08-02T20:01:40.184Z,100122.53
2017-08-02T20:04:07.864Z,100121.41
2017-08-02T20:06:35.735Z,100118.53
2017-08-02T20:09:03.399Z,100126.18
2017-08-02T20:11:31.065Z,100125.78
2017-08-02T20:13:58.744Z,100131.70
2017-08-02T20:16:26.586Z,100131.99
2017-08-02T20:18:54.313Z,100130.23
2017-08-02T20:21:22.054Z,100125.52
2017-08-02T20:23:49.778Z,100130.13
2017-08-02T20:26:17.582Z,100135.08
2017-08-02T20:28:45.475Z,100136.05
2017-08-02T20:31:13.183Z,100137.07
2017-08-02T20:33:40.847Z,100137.16
2017-08-02T20:36:08.508Z,100132.59
2017-08-02T20:38:36.164Z,100135.56
2017-08-02T20:41:03.942Z,100136.13
2017-08-02T20:43:31.857Z,100138.59
2017-08-02T20:45:59.441Z,100140.84
2017-08-02T20:48:27.288Z,100142.93
2017-08-02T20:50:55.254Z,100146.41
2017-08-02T20:53:22.983Z,100145.78
2017-08-02T20:55:51.015Z,100150.91
2017-08-02T20:58:18.898Z,100142.86
2017-08-02T21:00:46.605Z,100146.81
2017-08-02T21:03:14.470Z,100147.80
2017-08-02T21:05:42.308Z,100150.20
2017-08-02T21:08:10.148Z,100153.58
2017-08-02T21:10:38.027Z,100154.80
2017-08-02T21:13:06.085Z,100155.27
2017-08-02T21:15:33.761Z,100145.94
2017-08-02T21:18:01.745Z,100156.42
2017-08-02T21:20:29.501Z,100148.78
2017-08-02T21:22:57.559Z,100142.80
2017-08-02T21:25:25.225Z,100154.56
2017-08-02T21:27:53.141Z,100152.33
2017-08-02T21:30:21.103Z,100154.53
2017-08-02T21:32:49.029Z,100159.09
2017-08-02T21:35:17.040Z,100166.46
2017-08-02T21:37:44.882Z,100159.08
2017-08-02T21:40:12.634Z,100152.33
2017-08-02T21:42:40.312Z,100151.34
2017-08-02T21:45:08.012Z,100153.95
2017-08-02T21:47:35.828Z,100153.00
2017-08-02T21:50:03.889Z,100148.38
2017-08-02T21:52:31.762Z,100152.73
2017-08-02T21:54:59.352Z,100156.16
2017-08-02T21:57:27.050Z,100143.22
2017-08-02T21:59:54.930Z,100145.48
2017-08-02T22:02:22.611Z,100148.79
2017-08-02T22:04:50.644Z,100145.53
2017-08-02T22:07:18.553Z,100143.73
2017-08-02T22:09:46.281Z,100140.36
2017-08-02T22:12:14.049Z,100145.72
2017-08-02T22:14:41.748Z,100142.05
2017-08-02T22:17:09.610Z,100137.19
2017-08-02T22:19:37.525Z,100143.34
2017-08-02T22:22:05.341Z,100139.27
2017-08-02T22:24:33.059Z,100139.39
2017-08-02T22:27:01.048Z,100135.24
2017-08-02T22:29:28.740Z,100132.52
2017-08-02T22:31:56.366Z,100136.21
2017-08-02T22:34:24.473Z,100136.31
2017-08-02T22:36:52.342Z,100137.52
2017-08-02T22:39:20.185Z,100142.39
2017-08-02T22:41:47.931Z,100142.17
2017-08-02T22:44:15.795Z,100137.97
2017-08-02T22:46:43.606Z,100138.92
2017-08-02T22:49:11.467Z,100138.91
2017-08-02T22:51:39.127Z,100135.09
2017-08-02T22:54:06.840Z,100142.02
2017-08-02T22:56:34.865Z,100142.07
2017-08-02T22:59:02.529Z,100128.19
2017-08-02T23:01:30.364Z,100133.52
2017-08-02T23:03:58.261Z,100135.98
2017-08-02T23:06:25.976Z,100139.13
2017-08-02T23:08:53.983Z,100142.66
2017-08-02T23:11:21.932Z,100137.38
2017-08-02T23:13:49.875Z,100137.36
2017-08-02T23:16:17.765Z,100131.66
2017-08-02T23:18:45.439Z,100130.70
2017-08-02T23:21:13.106Z,100128.52
2017-08-02T23:23:40.917Z,100134.12
2017-08-02T23:26:08.591Z,100135.34
2017-08-02T23:28:36.500Z,100132.60
2017-08-02T23:31:04.243Z,100133.86
2017-08-02T23:33:32.048Z,100137.81
2017-08-02T23:35:59.900Z,100136.85
2017-08-02T23:38:27.579Z,100128.42
2017-08-02T23:40:55.555Z,100130.16
2017-08-02T23:43:23.454Z,100130.87
2017-08-02T23:45:51.384Z,100124.60
2017-08-02T23:48:19.457Z,100128.03
2017-08-02T23:50:47.066Z,100124.05
2017-08-02T23:53:14.779Z,100124.21
2017-08-02T23:55:42.851Z,100124.35
2017-08-02T23:58:10.582Z,100121.63
